createdAt,value
2019-03-30T00:01:17.845Z,98076.56
2019-03-30T00:03:44.443Z,98076.84
2019-03-30T00:06:11.654Z,98081.43
2019-03-30T00:08:38.123Z,98071.73
2019-03-30T00:11:04.542Z,98077.12
2019-03-30T00:13:30.917Z,98073.63
2019-03-30T00:15:57.463Z,98073.88
2019-03-30T00:18:24.071Z,98059.89
2019-03-30T00:20:50.539Z,98068.50
2019-03-30T00:23:16.962Z,98068.47
2019-03-30T00:25:43.230Z,98061.47
2019-03-30T00:28:09.664Z,98058.77
2019-03-30T00:30:36.279Z,98057.67
2019-03-30T00:33:02.747Z,98055.80
2019-03-30T00:35:29.262Z,98056.59
2019-03-30T00:37:55.674Z,98051.73
2019-03-30T00:40:22.046Z,98047.97
2019-03-30T00:42:48.959Z,98053.07
2019-03-30T00:45:15.410Z,98055.72
2019-03-30T00:47:42.039Z,98057.61
2019-03-30T00:50:09.281Z,98056.22
2019-03-30T00:52:35.580Z,98050.30
2019-03-30T00:55:04.583Z,98046.27
2019-03-30T00:57:30.990Z,98044.63
2019-03-30T00:59:57.313Z,98041.38
2019-03-30T01:02:23.659Z,98044.05
2019-03-30T01:04:50.123Z,98042.42
2019-03-30T01:07:16.740Z,98039.72
2019-03-30T01:09:43.138Z,98039.19
2019-03-30T01:12:11.277Z,98035.16
2019-03-30T01:14:37.655Z,98032.77
2019-03-30T01:17:05.187Z,98039.20
2019-03-30T01:19:31.563Z,98038.39
2019-03-30T01:21:58.335Z,98033.27
2019-03-30T01:24:24.749Z,98036.97
2019-03-30T01:26:51.334Z,98036.14
2019-03-30T01:29:18.203Z,98031.84
2019-03-30T01:31:44.622Z,98027.81
2019-03-30T01:34:11.241Z,98028.34
2019-03-30T01:36:37.648Z,98021.10
2019-03-30T01:39:05.847Z,98028.88
2019-03-30T01:41:32.767Z,98027.00
2019-03-30T01:43:59.172Z,98028.62
2019-03-30T01:46:25.670Z,98032.95
2019-03-30T01:48:52.351Z,98026.23
2019-03-30T01:51:18.846Z,98038.33
2019-03-30T01:53:45.458Z,98034.86
2019-03-30T01:56:12.139Z,98035.42
2019-03-30T01:58:38.615Z,98028.14
2019-03-30T02:01:05.578Z,98030.81
2019-03-30T02:03:32.418Z,98031.60
2019-03-30T02:05:59.177Z,98033.98
2019-03-30T02:08:25.892Z,98033.44
2019-03-30T02:10:52.462Z,98029.64
2019-03-30T02:13:19.276Z,98028.28
2019-03-30T02:15:45.891Z,98032.81
2019-03-30T02:18:13.024Z,98026.59
2019-03-30T02:20:45.945Z,98026.03
2019-03-30T02:23:12.842Z,98022.79
2019-03-30T02:25:39.585Z,98021.70
2019-03-30T02:28:07.263Z,98024.66
2019-03-30T02:30:35.022Z,98023.35
2019-03-30T02:33:01.695Z,98026.59
2019-03-30T02:35:28.522Z,98023.38
2019-03-30T02:37:55.164Z,98021.50
2019-03-30T02:40:21.900Z,98012.64
2019-03-30T02:42:48.520Z,98013.45
2019-03-30T02:45:15.191Z,98012.10
2019-03-30T02:47:41.959Z,98006.73
2019-03-30T02:50:09.142Z,98007.55
2019-03-30T02:52:35.636Z,98008.05
2019-03-30T02:55:04.915Z,98007.52
2019-03-30T02:57:31.928Z,98000.53
2019-03-30T02:59:58.426Z,98003.47
2019-03-30T03:02:24.952Z,98005.88
2019-03-30T03:04:51.840Z,98002.11
2019-03-30T03:07:18.568Z,98004.49
2019-03-30T03:09:45.078Z,98000.44
2019-03-30T03:12:11.682Z,97997.17
2019-03-30T03:14:38.308Z,97996.89
2019-03-30T03:17:04.883Z,97998.48
2019-03-30T03:19:31.399Z,97999.27
2019-03-30T03:21:58.079Z,97996.31
2019-03-30T03:24:24.492Z,97990.36
2019-03-30T03:26:50.919Z,97991.70
2019-03-30T03:29:17.433Z,97990.11
2019-03-30T03:31:44.018Z,97982.59
2019-03-30T03:34:10.602Z,97978.81
2019-03-30T03:36:37.333Z,97979.63
2019-03-30T03:39:04.278Z,97975.88
2019-03-30T03:41:30.669Z,97974.01
2019-03-30T03:43:57.348Z,97975.88
2019-03-30T03:46:23.758Z,97981.50
2019-03-30T03:48:50.330Z,97976.64
2019-03-30T03:51:26.232Z,97981.95
2019-03-30T03:53:47.396Z,97978.15
2019-03-30T03:56:14.282Z,97986.44
2019-03-30T03:58:43.856Z,97976.72
2019-03-30T04:01:13.465Z,97973.72
2019-03-30T04:03:40.179Z,97975.03
2019-03-30T04:06:07.023Z,97968.83
2019-03-30T04:08:34.322Z,97969.11
2019-03-30T04:11:02.551Z,97967.77
2019-03-30T04:13:29.703Z,97966.98
2019-03-30T04:15:56.555Z,97969.14
2019-03-30T04:18:23.839Z,97966.46
2019-03-30T04:20:50.478Z,97969.98
2019-03-30T04:23:17.050Z,97977.53
2019-03-30T04:25:43.813Z,97974.34
2019-03-30T04:28:10.341Z,97974.91
2019-03-30T04:30:36.832Z,97971.95
2019-03-30T04:33:03.328Z,97971.41
2019-03-30T04:35:29.929Z,97971.38
2019-03-30T04:37:56.418Z,97971.33
2019-03-30T04:40:23.078Z,97975.31
2019-03-30T04:42:49.764Z,97975.53
2019-03-30T04:45:16.242Z,97970.67
2019-03-30T04:47:42.737Z,97976.55
2019-03-30T04:50:09.476Z,97971.41
2019-03-30T04:52:35.962Z,97975.96
2019-03-30T04:55:05.382Z,97975.43
2019-03-30T04:57:31.872Z,97970.13
2019-03-30T04:59:58.580Z,97970.45
2019-03-30T05:02:24.984Z,97970.23
2019-03-30T05:04:51.543Z,97966.52
2019-03-30T05:07:18.038Z,97966.55
2019-03-30T05:09:44.615Z,97960.41
2019-03-30T05:12:11.306Z,97966.86
2019-03-30T05:14:37.590Z,97963.68
2019-03-30T05:17:04.432Z,97965.30
2019-03-30T05:19:30.803Z,97958.12
2019-03-30T05:22:11.038Z,97959.48
2019-03-30T05:24:25.774Z,97957.44
2019-03-30T05:26:52.421Z,97960.21
2019-03-30T05:29:18.791Z,97964.83
2019-03-30T05:31:45.399Z,97957.09
2019-03-30T05:34:11.795Z,97959.03
2019-03-30T05:36:38.351Z,97959.37
2019-03-30T05:39:04.989Z,97958.87
2019-03-30T05:41:31.423Z,97963.51
2019-03-30T05:43:57.821Z,97957.06
2019-03-30T05:46:24.603Z,97956.55
2019-03-30T05:48:51.046Z,97958.74
2019-03-30T05:51:17.655Z,97958.20
2019-03-30T05:53:44.275Z,97953.64
2019-03-30T05:56:10.678Z,97952.59
2019-03-30T05:58:37.035Z,97946.67
2019-03-30T06:01:03.440Z,97937.98
2019-03-30T06:03:30.004Z,97942.69
2019-03-30T06:05:56.341Z,97944.34
2019-03-30T06:08:22.714Z,97942.39
2019-03-30T06:10:49.254Z,97939.57
2019-03-30T06:13:15.734Z,97938.08
2019-03-30T06:15:42.138Z,97935.23
2019-03-30T06:18:11.287Z,97935.82
2019-03-30T06:20:37.182Z,97932.12
2019-03-30T06:23:03.567Z,97926.49
2019-03-30T06:25:30.080Z,97935.69
2019-03-30T06:27:56.499Z,97931.55
2019-03-30T06:30:26.123Z,97925.73
2019-03-30T06:32:52.608Z,97927.27
2019-03-30T06:35:19.086Z,97923.78
2019-03-30T06:37:45.766Z,97923.69
2019-03-30T06:40:12.622Z,97920.28
2019-03-30T06:42:39.363Z,97920.48
2019-03-30T06:45:06.684Z,97916.12
2019-03-30T06:47:33.714Z,97916.76
2019-03-30T06:50:00.368Z,97914.63
2019-03-30T06:52:26.791Z,97916.22
2019-03-30T06:54:53.243Z,97910.50
2019-03-30T06:57:19.753Z,97909.94
2019-03-30T06:59:46.361Z,97914.07
2019-03-30T07:02:13.512Z,97908.80
2019-03-30T07:04:39.896Z,97903.83
2019-03-30T07:07:08.496Z,97901.71
2019-03-30T07:09:35.229Z,97900.73
2019-03-30T07:12:02.542Z,97895.58
2019-03-30T07:14:31.175Z,97903.75
2019-03-30T07:17:02.306Z,97907.05
2019-03-30T07:19:31.045Z,97903.62
2019-03-30T07:21:57.617Z,97904.84
2019-03-30T07:24:24.114Z,97900.19
2019-03-30T07:26:50.881Z,97902.49
2019-03-30T07:29:17.235Z,97899.89
2019-03-30T07:31:43.739Z,97895.80
2019-03-30T07:34:10.262Z,97894.27
2019-03-30T07:36:36.630Z,97898.37
2019-03-30T07:39:04.555Z,97896.83
2019-03-30T07:41:30.952Z,97897.17
2019-03-30T07:43:57.461Z,97896.40
2019-03-30T07:46:23.856Z,97896.83
2019-03-30T07:48:50.555Z,97892.59
2019-03-30T07:51:16.955Z,97884.29
2019-03-30T07:53:44.847Z,97891.90
2019-03-30T07:56:11.582Z,97886.85
2019-03-30T07:58:37.999Z,97885.06
2019-03-30T08:01:04.526Z,97884.55
2019-03-30T08:03:30.993Z,97881.70
2019-03-30T08:05:57.502Z,97880.20
2019-03-30T08:08:23.901Z,97871.83
2019-03-30T08:10:50.475Z,97867.19
2019-03-30T08:13:16.864Z,97866.78
2019-03-30T08:15:43.576Z,97866.40
2019-03-30T08:18:10.057Z,97867.11
2019-03-30T08:20:36.401Z,97862.97
2019-03-30T08:23:02.776Z,97861.63
2019-03-30T08:25:29.351Z,97854.45
2019-03-30T08:27:55.846Z,97854.59
2019-03-30T08:30:22.207Z,97850.20
2019-03-30T08:32:48.644Z,97854.00
2019-03-30T08:35:14.980Z,97849.52
2019-03-30T08:37:42.061Z,97843.12
2019-03-30T08:40:08.681Z,97847.71
2019-03-30T08:42:35.232Z,97832.47
2019-03-30T08:45:03.131Z,97834.74
2019-03-30T08:47:29.547Z,97838.03
2019-03-30T08:49:55.959Z,97831.72
2019-03-30T08:52:22.375Z,97836.84
2019-03-30T08:54:48.994Z,97828.97
2019-03-30T08:57:15.299Z,97832.23
2019-03-30T08:59:41.663Z,97828.66
2019-03-30T09:02:08.081Z,97822.22
2019-03-30T09:04:34.448Z,97825.16
2019-03-30T09:07:00.874Z,97822.15
2019-03-30T09:09:27.591Z,97820.08
2019-03-30T09:11:54.121Z,97819.09
2019-03-30T09:14:20.537Z,97815.13
2019-03-30T09:16:46.970Z,97813.78
2019-03-30T09:19:13.588Z,97812.36
2019-03-30T09:21:40.119Z,97810.88
2019-03-30T09:24:10.000Z,97810.38
2019-03-30T09:26:35.042Z,97810.91
2019-03-30T09:29:01.379Z,97806.22
2019-03-30T09:31:27.930Z,97805.27
2019-03-30T09:33:54.581Z,97800.30
2019-03-30T09:36:21.027Z,97801.62
2019-03-30T09:38:47.467Z,97794.30
2019-03-30T09:41:13.916Z,97795.88
2019-03-30T09:43:40.427Z,97791.09
2019-03-30T09:46:06.861Z,97789.34
2019-03-30T09:48:33.278Z,97791.41
2019-03-30T09:51:00.026Z,97782.23
2019-03-30T09:53:26.414Z,97783.66
2019-03-30T09:55:53.029Z,97774.72
2019-03-30T09:58:19.384Z,97778.25
2019-03-30T10:00:46.041Z,97768.93
2019-03-30T10:03:12.425Z,97770.45
2019-03-30T10:05:38.856Z,97766.03
2019-03-30T10:08:05.337Z,97757.89
2019-03-30T10:10:31.748Z,97760.84
2019-03-30T10:12:58.255Z,97757.17
2019-03-30T10:15:24.779Z,97748.81
2019-03-30T10:17:51.201Z,97743.91
2019-03-30T10:20:17.552Z,97736.30
2019-03-30T10:22:44.084Z,97742.09
2019-03-30T10:25:10.737Z,97727.35
2019-03-30T10:27:37.129Z,97729.34
2019-03-30T10:30:09.679Z,97725.28
2019-03-30T10:32:38.674Z,97720.28
2019-03-30T10:35:06.400Z,97712.50
2019-03-30T10:37:33.140Z,97715.28
2019-03-30T10:39:59.842Z,97707.27
2019-03-30T10:42:26.277Z,97708.65
2019-03-30T10:44:52.770Z,97700.16
2019-03-30T10:47:19.459Z,97699.81
2019-03-30T10:49:46.136Z,97698.70
2019-03-30T10:52:12.570Z,97692.72
2019-03-30T10:54:51.931Z,97687.14
2019-03-30T10:57:07.615Z,97681.45
2019-03-30T10:59:34.014Z,97677.95
2019-03-30T11:02:00.849Z,97678.64
2019-03-30T11:04:27.487Z,97674.50
2019-03-30T11:06:53.919Z,97673.41
2019-03-30T11:09:20.355Z,97668.86
2019-03-30T11:11:46.648Z,97674.45
2019-03-30T11:14:13.142Z,97665.84
2019-03-30T11:16:39.470Z,97660.94
2019-03-30T11:19:06.191Z,97666.67
2019-03-30T11:21:32.830Z,97661.75
2019-03-30T11:23:59.325Z,97659.57
2019-03-30T11:26:25.648Z,97656.59
2019-03-30T11:28:52.020Z,97650.86
2019-03-30T11:31:18.632Z,97649.06
2019-03-30T11:33:45.059Z,97647.09
2019-03-30T11:36:11.701Z,97640.61
2019-03-30T11:38:38.104Z,97632.20
2019-03-30T11:41:04.808Z,97629.48
2019-03-30T11:43:31.205Z,97634.08
2019-03-30T11:45:57.666Z,97624.20
2019-03-30T11:48:24.089Z,97623.23
2019-03-30T11:50:50.632Z,97613.35
2019-03-30T11:53:16.986Z,97613.56
2019-03-30T11:55:43.438Z,97615.33
2019-03-30T11:58:09.835Z,97611.73
2019-03-30T12:00:36.675Z,97602.23
2019-03-30T12:03:03.164Z,97609.31
2019-03-30T12:05:29.557Z,97603.23
2019-03-30T12:07:56.119Z,97595.56
2019-03-30T12:10:22.519Z,97595.02
2019-03-30T12:12:48.927Z,97599.16
2019-03-30T12:15:15.440Z,97590.11
2019-03-30T12:17:41.997Z,97587.75
2019-03-30T12:20:09.370Z,97588.78
2019-03-30T12:22:35.715Z,97583.25
2019-03-30T12:25:03.523Z,97577.91
2019-03-30T12:27:29.985Z,97575.73
2019-03-30T12:29:56.472Z,97579.28
2019-03-30T12:32:22.771Z,97575.94
2019-03-30T12:34:49.181Z,97566.85
2019-03-30T12:37:15.580Z,97563.09
2019-03-30T12:39:42.261Z,97560.73
2019-03-30T12:42:08.769Z,97557.98
2019-03-30T12:44:35.207Z,97558.25
2019-03-30T12:47:01.706Z,97556.88
2019-03-30T12:49:28.055Z,97550.91
2019-03-30T12:51:54.495Z,97548.52
2019-03-30T12:54:21.032Z,97552.67
2019-03-30T12:56:47.719Z,97543.77
2019-03-30T12:59:14.854Z,97542.77
2019-03-30T13:01:41.201Z,97538.59
2019-03-30T13:04:07.809Z,97540.75
2019-03-30T13:06:34.303Z,97537.28
2019-03-30T13:09:00.744Z,97531.91
2019-03-30T13:11:27.231Z,97528.56
2019-03-30T13:13:53.743Z,97526.70
2019-03-30T13:16:20.330Z,97526.66
2019-03-30T13:18:46.738Z,97526.40
2019-03-30T13:21:13.372Z,97523.64
2019-03-30T13:23:39.899Z,97517.92
2019-03-30T13:26:06.287Z,97517.13
2019-03-30T13:28:32.820Z,97508.64
2019-03-30T13:30:59.294Z,97512.55
2019-03-30T13:33:25.676Z,97509.96
2019-03-30T13:35:52.151Z,97505.60
2019-03-30T13:38:20.781Z,97499.07
2019-03-30T13:40:46.976Z,97503.75
2019-03-30T13:43:13.594Z,97498.00
2019-03-30T13:45:40.049Z,97500.30
2019-03-30T13:48:06.618Z,97499.11
2019-03-30T13:50:33.149Z,97497.15
2019-03-30T13:52:59.653Z,97496.56
2019-03-30T13:55:26.394Z,97487.88
2019-03-30T13:57:52.826Z,97484.06
2019-03-30T14:00:19.423Z,97490.06
2019-03-30T14:02:45.887Z,97490.58
2019-03-30T14:05:12.678Z,97484.05
2019-03-30T14:07:39.106Z,97483.23
2019-03-30T14:10:08.769Z,97474.87
2019-03-30T14:12:35.138Z,97475.44
2019-03-30T14:15:01.693Z,97470.66
2019-03-30T14:17:28.348Z,97469.29
2019-03-30T14:19:54.787Z,97469.29
2019-03-30T14:22:21.072Z,97468.13
2019-03-30T14:24:47.684Z,97470.66
2019-03-30T14:27:14.322Z,97467.30
2019-03-30T14:29:40.730Z,97466.45
2019-03-30T14:32:07.155Z,97466.06
2019-03-30T14:34:33.450Z,97460.14
2019-03-30T14:36:59.864Z,97459.28
2019-03-30T14:39:26.352Z,97449.84
2019-03-30T14:41:52.771Z,97445.23
2019-03-30T14:44:19.223Z,97448.55
2019-03-30T14:46:45.844Z,97446.53
2019-03-30T14:49:12.572Z,97440.58
2019-03-30T14:51:38.958Z,97435.02
2019-03-30T14:54:05.619Z,97430.28
2019-03-30T14:56:44.866Z,97434.72
2019-03-30T14:59:09.905Z,97427.02
2019-03-30T15:01:28.688Z,97437.79
2019-03-30T15:03:55.529Z,97430.21
2019-03-30T15:06:22.025Z,97431.41
2019-03-30T15:08:48.449Z,97425.05
2019-03-30T15:11:14.895Z,97421.45
2019-03-30T15:13:41.204Z,97415.24
2019-03-30T15:16:07.660Z,97409.07
2019-03-30T15:18:34.157Z,97405.28
2019-03-30T15:21:00.739Z,97405.62
2019-03-30T15:23:27.363Z,97405.49
2019-03-30T15:25:53.918Z,97397.16
2019-03-30T15:28:20.344Z,97391.92
2019-03-30T15:30:46.871Z,97392.25
2019-03-30T15:33:13.407Z,97391.79
2019-03-30T15:35:39.806Z,97394.84
2019-03-30T15:38:06.466Z,97393.14
2019-03-30T15:40:32.896Z,97387.94
2019-03-30T15:42:59.319Z,97388.02
2019-03-30T15:45:25.781Z,97385.52
2019-03-30T15:47:52.102Z,97382.88
2019-03-30T15:50:19.094Z,97374.72
2019-03-30T15:52:45.734Z,97380.53
2019-03-30T15:55:12.420Z,97388.48
2019-03-30T16:06:26.359Z,97373.17
2019-03-30T16:08:52.874Z,97375.14
2019-03-30T16:11:19.360Z,97366.78
2019-03-30T16:13:45.888Z,97364.13
2019-03-30T16:16:12.431Z,97371.08
2019-03-30T16:18:38.960Z,97364.53
2019-03-30T16:21:05.584Z,97358.30
2019-03-30T16:23:32.471Z,97353.48
2019-03-30T16:25:58.882Z,97356.89
2019-03-30T16:28:25.422Z,97355.16
2019-03-30T16:30:52.056Z,97352.28
2019-03-30T16:33:18.431Z,97347.02
2019-03-30T16:35:44.879Z,97345.48
2019-03-30T16:38:11.288Z,97341.58
2019-03-30T16:40:37.854Z,97345.55
2019-03-30T16:43:04.339Z,97343.23
2019-03-30T16:45:30.887Z,97344.23
2019-03-30T16:47:57.461Z,97348.77
2019-03-30T16:50:23.867Z,97347.02
2019-03-30T16:52:50.275Z,97349.95
2019-03-30T16:55:16.660Z,97345.02
2019-03-30T16:57:44.278Z,97347.38
2019-03-30T17:00:11.776Z,97349.16
2019-03-30T17:02:38.407Z,97356.41
2019-03-30T17:05:07.128Z,97355.22
2019-03-30T17:07:33.570Z,97355.62
2019-03-30T17:09:59.972Z,97352.86
2019-03-30T17:12:26.320Z,97356.66
2019-03-30T17:18:00.942Z,97351.05
2019-03-30T17:20:27.496Z,97352.70
2019-03-30T17:22:54.283Z,97357.64
2019-03-30T17:25:20.957Z,97359.48
2019-03-30T17:27:57.995Z,97357.80
2019-03-30T17:30:15.881Z,97367.64
2019-03-30T17:43:14.839Z,97363.90
2019-03-30T17:45:41.347Z,97365.43
2019-03-30T17:48:07.768Z,97365.67
2019-03-30T17:50:34.263Z,97363.78
2019-03-30T17:53:00.711Z,97367.21
2019-03-30T17:55:33.551Z,97371.50
2019-03-30T17:57:55.779Z,97373.13
2019-03-30T18:00:22.456Z,97371.08
2019-03-30T18:02:48.883Z,97379.84
2019-03-30T18:05:15.348Z,97375.84
2019-03-30T18:07:41.828Z,97372.22
2019-03-30T18:10:09.148Z,97380.52
2019-03-30T18:12:35.644Z,97380.84
2019-03-30T18:15:03.803Z,97372.00
2019-03-30T18:17:30.121Z,97381.52
2019-03-30T18:19:56.490Z,97383.58
2019-03-30T18:22:23.095Z,97381.84
2019-03-30T18:24:49.538Z,97387.83
2019-03-30T18:27:16.053Z,97376.89
2019-03-30T18:29:42.456Z,97384.11
2019-03-30T18:32:09.593Z,97385.41
2019-03-30T18:34:36.310Z,97376.73
2019-03-30T18:37:03.026Z,97391.41
2019-03-30T18:39:29.436Z,97391.41
2019-03-30T18:41:56.196Z,97384.50
2019-03-30T18:44:23.130Z,97383.84
2019-03-30T18:46:49.475Z,97383.84
2019-03-30T18:49:15.775Z,97387.94
2019-03-30T18:51:45.026Z,97393.15
2019-03-30T18:54:12.021Z,97390.84
2019-03-30T18:56:38.456Z,97395.95
2019-03-30T18:59:04.847Z,97397.84
2019-03-30T19:01:31.596Z,97395.91
2019-03-30T19:03:58.235Z,97395.91
2019-03-30T19:06:24.613Z,97403.25
2019-03-30T19:08:51.176Z,97400.26
2019-03-30T19:11:17.536Z,97399.19
2019-03-30T19:13:44.012Z,97399.24
2019-03-30T19:16:10.310Z,97399.53
2019-03-30T19:18:36.699Z,97395.42
2019-03-30T19:21:03.291Z,97396.27
2019-03-30T19:23:29.735Z,97401.67
2019-03-30T19:25:56.089Z,97398.67
2019-03-30T19:28:22.401Z,97401.55
2019-03-30T19:30:48.863Z,97409.91
2019-03-30T19:33:15.483Z,97404.66
2019-03-30T19:35:41.986Z,97402.02
2019-03-30T19:38:10.959Z,97413.55
2019-03-30T19:40:37.067Z,97406.86
2019-03-30T19:43:03.472Z,97409.98
2019-03-30T19:45:30.087Z,97404.25
2019-03-30T19:47:56.723Z,97409.08
2019-03-30T19:50:23.736Z,97407.55
2019-03-30T19:52:50.155Z,97406.94
2019-03-30T19:55:16.719Z,97405.18
2019-03-30T19:57:43.127Z,97397.45
2019-03-30T20:00:11.882Z,97394.36
2019-03-30T20:02:38.464Z,97398.34
2019-03-30T20:05:06.455Z,97393.17
2019-03-30T20:07:33.011Z,97388.80
2019-03-30T20:09:59.487Z,97393.69
2019-03-30T20:12:26.279Z,97386.34
2019-03-30T20:14:52.842Z,97379.48
2019-03-30T20:17:19.297Z,97385.09
2019-03-30T20:19:45.734Z,97385.00
2019-03-30T20:22:12.210Z,97389.98
2019-03-30T20:24:38.675Z,97392.59
2019-03-30T20:27:05.487Z,97391.38
2019-03-30T20:29:32.028Z,97390.98
2019-03-30T20:31:58.436Z,97389.70
2019-03-30T20:34:25.062Z,97391.47
2019-03-30T20:36:51.860Z,97391.92
2019-03-30T20:39:18.358Z,97381.80
2019-03-30T20:41:44.798Z,97385.72
2019-03-30T20:44:11.292Z,97382.09
2019-03-30T20:46:37.783Z,97387.37
2019-03-30T20:49:04.174Z,97382.33
2019-03-30T20:51:30.612Z,97385.20
2019-03-30T20:53:57.087Z,97378.83
2019-03-30T20:56:23.665Z,97374.89
2019-03-30T20:58:49.949Z,97373.39
2019-03-30T21:01:16.358Z,97369.45
2019-03-30T21:03:42.950Z,97373.67
2019-03-30T21:06:09.432Z,97378.21
2019-03-30T21:08:35.882Z,97372.36
2019-03-30T21:11:02.279Z,97373.69
2019-03-30T21:13:28.775Z,97375.27
2019-03-30T21:15:55.165Z,97370.80
2019-03-30T21:18:21.670Z,97374.45
2019-03-30T21:20:48.424Z,97373.22
2019-03-30T21:23:15.000Z,97372.17
2019-03-30T21:25:41.619Z,97370.42
2019-03-30T21:28:08.048Z,97369.67
2019-03-30T21:30:34.632Z,97363.55
2019-03-30T21:33:01.268Z,97369.27
2019-03-30T21:35:27.775Z,97363.61
2019-03-30T21:37:54.307Z,97361.84
2019-03-30T21:40:20.797Z,97361.16
2019-03-30T21:42:52.300Z,97356.69
2019-03-30T21:45:18.830Z,97357.95
2019-03-30T21:47:45.440Z,97354.80
2019-03-30T21:50:12.079Z,97353.03
2019-03-30T21:52:38.419Z,97350.94
2019-03-30T21:55:05.700Z,97350.22
2019-03-30T21:57:32.119Z,97347.07
2019-03-30T22:00:09.649Z,97349.13
2019-03-30T22:02:26.814Z,97354.98
2019-03-30T22:04:53.139Z,97352.46
2019-03-30T22:07:19.842Z,97345.09
2019-03-30T22:09:46.359Z,97342.88
2019-03-30T22:12:12.775Z,97342.86
2019-03-30T22:14:39.334Z,97339.23
2019-03-30T22:17:05.720Z,97342.63
2019-03-30T22:19:32.340Z,97336.54
2019-03-30T22:21:58.652Z,97333.66
2019-03-30T22:24:25.237Z,97341.59
2019-03-30T22:26:51.791Z,97340.34
2019-03-30T22:29:18.372Z,97335.31
2019-03-30T22:31:44.775Z,97332.66
2019-03-30T22:34:11.271Z,97328.13
2019-03-30T22:36:37.652Z,97337.08
2019-03-30T22:39:05.206Z,97325.81
2019-03-30T22:41:31.496Z,97331.84
2019-03-30T22:43:57.892Z,97334.30
2019-03-30T22:46:24.241Z,97332.19
2019-03-30T22:48:50.638Z,97328.27
2019-03-30T22:51:17.229Z,97328.60
2019-03-30T22:53:43.522Z,97330.03
2019-03-30T22:56:10.008Z,97326.57
2019-03-30T22:58:36.426Z,97322.89
2019-03-30T23:01:07.941Z,97327.49
2019-03-30T23:03:34.471Z,97328.84
2019-03-30T23:06:01.096Z,97325.89
2019-03-30T23:08:27.639Z,97329.19
2019-03-30T23:10:54.120Z,97330.06
2019-03-30T23:13:20.599Z,97329.55
2019-03-30T23:15:47.016Z,97325.00
2019-03-30T23:18:13.607Z,97324.20
2019-03-30T23:20:40.035Z,97325.00
2019-03-30T23:23:06.603Z,97330.66
2019-03-30T23:25:33.102Z,97325.80
2019-03-30T23:27:59.535Z,97329.05
2019-03-30T23:30:26.062Z,97327.45
2019-03-30T23:32:52.496Z,97328.88
2019-03-30T23:35:19.103Z,97328.62
2019-03-30T23:37:45.597Z,97325.95
2019-03-30T23:40:12.219Z,97325.45
2019-03-30T23:42:38.775Z,97327.35
2019-03-30T23:45:05.470Z,97326.08
2019-03-30T23:47:31.865Z,97328.02
2019-03-30T23:49:58.315Z,97323.75
2019-03-30T23:52:24.640Z,97325.98
2019-03-30T23:54:50.979Z,97326.56
2019-03-30T23:57:18.031Z,97323.11
2019-03-30T23:59:44.667Z,97321.57
